Terminal Aerodrome Forecast
Issued by NWS Albany, NY

Home | Current Version | Previous Version | Text Only | Print | Product List | Glossary On
Versions: 1 2 3 4 5 6 7 8 9 10 11 12 13 14 15 16 17 18 19 20 21 22
676
FTUS41 KALY 092349 CCB
TAFGFL
TAF COR
KGFL 092349Z 1000/1024 00000KT P6SM VCSH OVC035
      TEMPO 1000/1004 3SM -SHSN OVC020
     FM100400 VRB03KT P6SM OVC015
     FM100900 VRB03KT P6SM VCSH OVC015 PROB30 1009/1012 2SM -SHSN
      OVC007
     FM102200 26006KT P6SM OVC070=

USA.gov is the U.S. government's official web portal to all federal, state and local government web resources and services.